createdAt,value
2023-01-19T00:00:28.279Z,9.457066
2023-01-19T00:01:28.178Z,9.457102
2023-01-19T00:02:28.223Z,9.456970
2023-01-19T00:03:28.141Z,9.457095
2023-01-19T00:04:28.138Z,9.457069
2023-01-19T00:05:28.143Z,9.457168
2023-01-19T00:06:28.158Z,9.457068
2023-01-19T00:07:28.106Z,9.457032
2023-01-19T00:08:28.101Z,9.457119
2023-01-19T00:09:28.154Z,9.456973
2023-01-19T00:10:28.095Z,9.456882
2023-01-19T00:11:28.076Z,9.456832
2023-01-19T00:12:28.056Z,9.457047
2023-01-19T00:13:28.048Z,9.456991
2023-01-19T00:14:28.031Z,9.457060
2023-01-19T00:15:28.057Z,9.457015
2023-01-19T00:16:28.077Z,9.457099
2023-01-19T00:17:28.014Z,9.457084
2023-01-19T00:18:27.994Z,9.457011
2023-01-19T00:19:27.984Z,9.457085
2023-01-19T00:20:28.012Z,9.456957
2023-01-19T00:21:27.969Z,9.457084
2023-01-19T00:22:27.968Z,9.457006
2023-01-19T00:23:27.962Z,9.457043
2023-01-19T00:24:27.942Z,9.457032
2023-01-19T00:25:27.944Z,9.456902
2023-01-19T00:26:27.932Z,9.456945
2023-01-19T00:27:27.913Z,9.457019
2023-01-19T00:28:27.898Z,9.456972
2023-01-19T00:29:27.886Z,9.457102
2023-01-19T00:30:27.882Z,9.457079
2023-01-19T00:31:27.965Z,9.457089
2023-01-19T00:32:27.876Z,9.457032
2023-01-19T00:33:27.866Z,9.456604
2023-01-19T00:34:27.837Z,9.456867
2023-01-19T00:35:27.828Z,9.457118
2023-01-19T00:36:27.826Z,9.457259
2023-01-19T00:37:27.821Z,9.457086
2023-01-19T00:38:27.794Z,9.457107
2023-01-19T00:39:27.793Z,9.456992
2023-01-19T00:40:27.780Z,9.457162
2023-01-19T00:41:27.793Z,9.457258
2023-01-19T00:42:27.753Z,9.457250
2023-01-19T00:43:27.753Z,9.457183
2023-01-19T00:44:27.749Z,9.457171
2023-01-19T00:45:27.792Z,9.457286
2023-01-19T00:46:27.726Z,9.457138
2023-01-19T00:47:27.714Z,9.457232
2023-01-19T00:48:27.697Z,9.457419
2023-01-19T00:49:27.685Z,9.457321
2023-01-19T00:50:27.671Z,9.457096
2023-01-19T00:51:27.683Z,9.457046
2023-01-19T00:52:27.674Z,9.457131
2023-01-19T00:53:27.657Z,9.457076
2023-01-19T00:54:27.755Z,9.457148
2023-01-19T00:55:27.634Z,9.457129
2023-01-19T00:56:27.658Z,9.457336
2023-01-19T00:57:27.655Z,9.457158
2023-01-19T00:58:27.599Z,9.457249
2023-01-19T00:59:27.605Z,9.457108
2023-01-19T01:00:27.588Z,9.457072
2023-01-19T01:01:45.048Z,9.456948
2023-01-19T01:02:28.758Z,9.456961
2023-01-19T01:03:27.572Z,9.457014
2023-01-19T01:04:27.550Z,9.456745
2023-01-19T01:05:27.536Z,9.456918
2023-01-19T01:06:27.541Z,9.456952
2023-01-19T01:07:27.513Z,9.457225
2023-01-19T01:08:27.504Z,9.457126
2023-01-19T01:09:27.548Z,9.457043
2023-01-19T01:10:27.494Z,9.457355
2023-01-19T01:11:27.494Z,9.457199
2023-01-19T01:12:27.459Z,9.457228
2023-01-19T01:13:28.037Z,9.457330
2023-01-19T01:14:28.430Z,9.456787
2023-01-19T01:15:27.496Z,9.456861
2023-01-19T01:16:27.473Z,9.456891
2023-01-19T01:17:27.455Z,9.456947
2023-01-19T01:18:27.400Z,9.457228
2023-01-19T01:19:27.393Z,9.457322
2023-01-19T01:20:27.388Z,9.457142
2023-01-19T01:21:27.405Z,9.457149
2023-01-19T01:22:27.357Z,9.457248
2023-01-19T01:23:27.361Z,9.457324
2023-01-19T01:24:27.348Z,9.457414
2023-01-19T01:25:27.363Z,9.457288
2023-01-19T01:26:27.880Z,9.457247
2023-01-19T01:27:27.341Z,9.457374
2023-01-19T01:28:27.306Z,9.457197
2023-01-19T01:29:27.303Z,9.457275
2023-01-19T01:30:27.284Z,9.457328
2023-01-19T01:31:27.313Z,9.457241
2023-01-19T01:32:27.269Z,9.457211
2023-01-19T01:33:41.340Z,9.457401
2023-01-19T01:34:28.244Z,9.457314
2023-01-19T01:35:27.241Z,9.457163
2023-01-19T01:36:27.258Z,9.457092
2023-01-19T01:37:27.222Z,9.457208
2023-01-19T01:38:27.205Z,9.457180
2023-01-19T01:39:27.198Z,9.457360
2023-01-19T01:40:27.190Z,9.457340
2023-01-19T01:41:27.200Z,9.457242
2023-01-19T01:42:27.266Z,9.457252
2023-01-19T01:43:27.158Z,9.457088
2023-01-19T01:44:27.173Z,9.457105
2023-01-19T01:45:27.191Z,9.457300
2023-01-19T01:46:27.173Z,9.457332
2023-01-19T01:47:27.119Z,9.457280
2023-01-19T01:48:27.106Z,9.457231
2023-01-19T01:49:27.098Z,9.457129
2023-01-19T01:50:27.079Z,9.457098
2023-01-19T01:51:27.113Z,9.457131
2023-01-19T01:52:27.079Z,9.457365
2023-01-19T01:53:27.063Z,9.457335
2023-01-19T01:54:27.039Z,9.457336
2023-01-19T01:55:27.051Z,9.457318
2023-01-19T01:56:27.050Z,9.457353
2023-01-19T01:57:27.025Z,9.457314
2023-01-19T01:58:27.010Z,9.457326
2023-01-19T01:59:27.020Z,9.457023
2023-01-19T02:00:26.995Z,9.457125
2023-01-19T02:01:29.229Z,9.457324
2023-01-19T02:02:26.997Z,9.457348
2023-01-19T02:03:27.021Z,9.457213
2023-01-19T02:04:26.959Z,9.457390
2023-01-19T02:05:26.949Z,9.457372
2023-01-19T02:06:26.958Z,9.457333
2023-01-19T02:07:26.929Z,9.457293
2023-01-19T02:08:26.921Z,9.457280
2023-01-19T02:09:26.896Z,9.457292
2023-01-19T02:10:26.903Z,9.457302
2023-01-19T02:11:26.906Z,9.457265
2023-01-19T02:12:26.875Z,9.456938
2023-01-19T02:13:26.852Z,9.457156
2023-01-19T02:14:26.853Z,9.457245
2023-01-19T02:15:26.851Z,9.457285
2023-01-19T02:16:26.860Z,9.457254
2023-01-19T02:17:26.818Z,9.457279
2023-01-19T02:18:26.804Z,9.457264
2023-01-19T02:19:26.806Z,9.457352
2023-01-19T02:20:26.786Z,9.457306
2023-01-19T02:21:26.803Z,9.457381
2023-01-19T02:22:26.771Z,9.457230
2023-01-19T02:23:26.758Z,9.457252
2023-01-19T02:24:26.751Z,9.457260
2023-01-19T02:25:26.748Z,9.457271
2023-01-19T02:26:26.752Z,9.457206
2023-01-19T02:27:26.729Z,9.457189
2023-01-19T02:28:26.715Z,9.457172
2023-01-19T02:29:26.705Z,9.457258
2023-01-19T02:30:26.726Z,9.457313
2023-01-19T02:31:26.706Z,9.457270
2023-01-19T02:32:26.682Z,9.457202
2023-01-19T02:33:26.666Z,9.457290
2023-01-19T02:34:26.655Z,9.457390
2023-01-19T02:35:26.649Z,9.457471
2023-01-19T02:36:26.655Z,9.457442
2023-01-19T02:37:26.635Z,9.457364
2023-01-19T02:38:26.614Z,9.457343
2023-01-19T02:39:26.608Z,9.457279
2023-01-19T02:40:26.608Z,9.457155
2023-01-19T02:41:26.664Z,9.457269
2023-01-19T02:42:26.578Z,9.457172
2023-01-19T02:43:26.567Z,9.457303
2023-01-19T02:44:26.559Z,9.457273
2023-01-19T02:45:26.551Z,9.457299
2023-01-19T02:46:26.559Z,9.457181
2023-01-19T02:47:26.539Z,9.457213
2023-01-19T02:48:26.525Z,9.457292
2023-01-19T02:49:26.517Z,9.457195
2023-01-19T02:50:26.510Z,9.457235
2023-01-19T02:51:26.519Z,9.457275
2023-01-19T02:52:26.485Z,9.457196
2023-01-19T02:53:26.466Z,9.457232
2023-01-19T02:54:26.470Z,9.457277
2023-01-19T02:55:26.455Z,9.457207
2023-01-19T02:56:26.471Z,9.457196
2023-01-19T02:57:26.427Z,9.457175
2023-01-19T02:58:26.419Z,9.457190
2023-01-19T02:59:26.413Z,9.457179
2023-01-19T03:00:26.405Z,9.457277
2023-01-19T03:01:26.511Z,9.457386
2023-01-19T03:02:26.422Z,9.457248
2023-01-19T03:03:26.380Z,9.457214
2023-01-19T03:04:26.378Z,9.457226
2023-01-19T03:05:26.368Z,9.457134
2023-01-19T03:06:26.371Z,9.457286
2023-01-19T03:07:26.335Z,9.457138
2023-01-19T03:08:26.325Z,9.457128
2023-01-19T03:09:26.313Z,9.457243
2023-01-19T03:10:26.304Z,9.457088
2023-01-19T03:11:26.314Z,9.456983
2023-01-19T03:12:26.284Z,9.457167
2023-01-19T03:13:26.288Z,9.457082
2023-01-19T03:14:26.265Z,9.457060
2023-01-19T03:15:26.294Z,9.456992
2023-01-19T03:16:26.286Z,9.457142
2023-01-19T03:17:26.226Z,9.457118
2023-01-19T03:18:26.219Z,9.457178
2023-01-19T03:19:26.211Z,9.457036
2023-01-19T03:20:27.203Z,9.457288
2023-01-19T03:21:26.210Z,9.457196
2023-01-19T03:22:26.219Z,9.457288
2023-01-19T03:23:26.188Z,9.457291
2023-01-19T03:24:26.166Z,9.457394
2023-01-19T03:25:26.162Z,9.457336
2023-01-19T03:26:26.143Z,9.457200
2023-01-19T03:27:26.150Z,9.457196
2023-01-19T03:28:26.125Z,9.457146
2023-01-19T03:29:26.110Z,9.457246
2023-01-19T03:30:26.116Z,9.457165
2023-01-19T03:31:26.100Z,9.457302
2023-01-19T03:32:26.112Z,9.457107
2023-01-19T03:33:26.090Z,9.457288
2023-01-19T03:34:26.073Z,9.457206
2023-01-19T03:35:26.058Z,9.457182
2023-01-19T03:36:26.052Z,9.457158
2023-01-19T03:37:26.069Z,9.457136
2023-01-19T03:38:26.027Z,9.457371
2023-01-19T03:39:26.020Z,9.457434
2023-01-19T03:40:26.002Z,9.457281
2023-01-19T03:41:26.078Z,9.457361
2023-01-19T03:42:26.007Z,9.457264
2023-01-19T03:43:25.976Z,9.457262
2023-01-19T03:44:25.970Z,9.457288
2023-01-19T03:45:25.966Z,9.457239
2023-01-19T03:46:26.015Z,9.457293
2023-01-19T03:47:25.968Z,9.457215
2023-01-19T03:48:25.924Z,9.457222
2023-01-19T03:49:25.915Z,9.457172
2023-01-19T03:50:25.903Z,9.457367
2023-01-19T03:51:25.900Z,9.457236
2023-01-19T03:52:25.897Z,9.457272
2023-01-19T03:53:25.877Z,9.457314
2023-01-19T03:54:25.868Z,9.457309
2023-01-19T03:55:25.859Z,9.457268
2023-01-19T03:56:25.845Z,9.457283
2023-01-19T03:57:25.850Z,9.457307
2023-01-19T03:58:25.833Z,9.457176
2023-01-19T03:59:25.824Z,9.457273
2023-01-19T04:00:25.810Z,9.457350
2023-01-19T04:01:25.879Z,9.457339
2023-01-19T04:02:25.898Z,9.457246
2023-01-19T04:03:25.780Z,9.457291
2023-01-19T04:04:25.778Z,9.457185
2023-01-19T04:05:25.752Z,9.457161
2023-01-19T04:06:25.750Z,9.456511
2023-01-19T04:07:25.764Z,9.456884
2023-01-19T04:08:25.735Z,9.457097
2023-01-19T04:09:25.744Z,9.456446
2023-01-19T04:10:25.713Z,9.456421
2023-01-19T04:11:25.734Z,9.456553
2023-01-19T04:12:25.715Z,9.456757
2023-01-19T04:13:25.686Z,9.457033
2023-01-19T04:14:25.670Z,9.457254
2023-01-19T04:15:25.664Z,9.457540
2023-01-19T04:16:25.658Z,9.457414
2023-01-19T04:17:25.657Z,9.457314
2023-01-19T04:18:25.628Z,9.457281
2023-01-19T04:19:25.630Z,9.457212
2023-01-19T04:20:25.609Z,9.457169
2023-01-19T04:21:25.592Z,9.456994
2023-01-19T04:22:25.621Z,9.456947
2023-01-19T04:23:25.586Z,9.457170
2023-01-19T04:24:25.573Z,9.457045
2023-01-19T04:25:25.574Z,9.457335
2023-01-19T04:26:25.552Z,9.457389
2023-01-19T04:27:25.560Z,9.457205
2023-01-19T04:28:25.535Z,9.457273
2023-01-19T04:29:25.543Z,9.457652
2023-01-19T04:30:25.524Z,9.457602
2023-01-19T04:31:25.517Z,9.457010
2023-01-19T04:32:25.515Z,9.457243
2023-01-19T04:33:25.490Z,9.457222
2023-01-19T04:34:25.466Z,9.457270
2023-01-19T04:35:25.463Z,9.457294
2023-01-19T04:36:25.451Z,9.457264
2023-01-19T04:37:25.463Z,9.457211
2023-01-19T04:38:25.426Z,9.457157
2023-01-19T04:39:25.433Z,9.457151
2023-01-19T04:40:25.429Z,9.457281
2023-01-19T04:41:25.406Z,9.457298
2023-01-19T04:42:25.412Z,9.457311
2023-01-19T04:43:25.408Z,9.457288
2023-01-19T04:44:25.373Z,9.457391
2023-01-19T04:45:25.373Z,9.457257
2023-01-19T04:46:25.365Z,9.457173
2023-01-19T04:47:25.378Z,9.457268
2023-01-19T04:48:25.345Z,9.457163
2023-01-19T04:49:25.327Z,9.457272
2023-01-19T04:50:25.308Z,9.457238
2023-01-19T04:51:25.309Z,9.457201
2023-01-19T04:52:25.320Z,9.457170
2023-01-19T04:53:25.295Z,9.457208
2023-01-19T04:54:25.338Z,9.457198
2023-01-19T04:55:25.264Z,9.457542
2023-01-19T04:56:25.275Z,9.457459
2023-01-19T04:57:25.394Z,9.457538
2023-01-19T04:58:25.230Z,9.457159
2023-01-19T04:59:25.223Z,9.457195
2023-01-19T05:00:25.224Z,9.456975
2023-01-19T05:01:26.218Z,9.456880
2023-01-19T05:02:25.216Z,9.457023
2023-01-19T05:03:26.565Z,9.456612
2023-01-19T05:04:26.186Z,9.456783
2023-01-19T05:05:25.173Z,9.456968
2023-01-19T05:06:25.166Z,9.457186
2023-01-19T05:07:25.167Z,9.457270
2023-01-19T05:08:25.144Z,9.457294
2023-01-19T05:09:25.122Z,9.457139
2023-01-19T05:10:25.116Z,9.457227
2023-01-19T05:11:25.107Z,9.457028
2023-01-19T05:12:25.114Z,9.457074
2023-01-19T05:13:25.098Z,9.457246
2023-01-19T05:14:25.086Z,9.457208
2023-01-19T05:15:25.067Z,9.457447
2023-01-19T05:16:25.156Z,9.457230
2023-01-19T05:17:25.064Z,9.457579
2023-01-19T05:18:25.045Z,9.457310
2023-01-19T05:19:25.028Z,9.457309
2023-01-19T05:20:25.027Z,9.457463
2023-01-19T05:21:25.012Z,9.457391
2023-01-19T05:22:25.049Z,9.457387
2023-01-19T05:23:24.985Z,9.457410
2023-01-19T05:24:24.983Z,9.457338
2023-01-19T05:25:24.970Z,9.456698
2023-01-19T05:26:24.959Z,9.456590
2023-01-19T05:27:24.967Z,9.457067
2023-01-19T05:28:24.940Z,9.457099
2023-01-19T05:29:24.939Z,9.457198
2023-01-19T05:30:24.915Z,9.457196
2023-01-19T05:31:25.017Z,9.457358
2023-01-19T05:32:24.917Z,9.457135
2023-01-19T05:33:24.876Z,9.457448
2023-01-19T05:34:24.881Z,9.457286
2023-01-19T05:35:35.248Z,9.457375
2023-01-19T05:36:26.857Z,9.457235
2023-01-19T05:37:24.885Z,9.457304
2023-01-19T05:38:34.533Z,9.457488
2023-01-19T05:39:26.837Z,9.457498
2023-01-19T05:40:24.827Z,9.457253
2023-01-19T05:41:24.803Z,9.457430
2023-01-19T05:42:24.815Z,9.457246
2023-01-19T05:43:24.786Z,9.457372
2023-01-19T05:44:24.777Z,9.457224
2023-01-19T05:45:24.760Z,9.457422
2023-01-19T05:46:24.800Z,9.457049
2023-01-19T05:47:24.773Z,9.457262
2023-01-19T05:48:24.745Z,9.457151
2023-01-19T05:49:24.720Z,9.457417
2023-01-19T05:50:24.719Z,9.457212
2023-01-19T05:51:24.708Z,9.457203
2023-01-19T05:52:24.717Z,9.457337
2023-01-19T05:53:24.704Z,9.457515
2023-01-19T05:54:24.682Z,9.457407
2023-01-19T05:55:24.668Z,9.457244
2023-01-19T05:56:24.676Z,9.457138
2023-01-19T05:57:24.664Z,9.457253
2023-01-19T05:58:24.636Z,9.457603
2023-01-19T05:59:24.637Z,9.457532
2023-01-19T06:00:24.632Z,9.457324
2023-01-19T06:01:24.658Z,9.457404
2023-01-19T06:02:24.632Z,9.457468
2023-01-19T06:03:24.627Z,9.457516
2023-01-19T06:04:24.580Z,9.457350
2023-01-19T06:05:24.567Z,9.457215
2023-01-19T06:06:24.561Z,9.457231
2023-01-19T06:07:25.656Z,9.457147
2023-01-19T06:08:24.557Z,9.457194
2023-01-19T06:09:24.531Z,9.457251
2023-01-19T06:10:24.530Z,9.457304
2023-01-19T06:11:24.514Z,9.457339
2023-01-19T06:12:24.519Z,9.457294
2023-01-19T06:13:24.494Z,9.457221
2023-01-19T06:14:24.486Z,9.457294
2023-01-19T06:15:24.466Z,9.457343
2023-01-19T06:16:24.520Z,9.457439
2023-01-19T06:17:24.455Z,9.457350
2023-01-19T06:18:24.442Z,9.457340
2023-01-19T06:19:24.432Z,9.457397
2023-01-19T06:20:24.418Z,9.457299
2023-01-19T06:21:24.402Z,9.457326
2023-01-19T06:22:24.426Z,9.457290
2023-01-19T06:23:26.705Z,9.457314
2023-01-19T06:24:24.381Z,9.457390
2023-01-19T06:25:24.367Z,9.457314
2023-01-19T06:26:24.368Z,9.457240
2023-01-19T06:27:24.367Z,9.457269
2023-01-19T06:28:24.372Z,9.457309
2023-01-19T06:29:24.317Z,9.457299
2023-01-19T06:30:24.320Z,9.457370
2023-01-19T06:31:24.340Z,9.457247
2023-01-19T06:32:24.316Z,9.457159
2023-01-19T06:33:24.282Z,9.457285
2023-01-19T06:34:24.277Z,9.457259
2023-01-19T06:35:24.269Z,9.457231
2023-01-19T06:36:24.270Z,9.457246
2023-01-19T06:37:24.269Z,9.457287
2023-01-19T06:38:24.241Z,9.457266
2023-01-19T06:39:24.251Z,9.457373
2023-01-19T06:40:24.225Z,9.457292
2023-01-19T06:41:24.212Z,9.457305
2023-01-19T06:42:24.200Z,9.457365
2023-01-19T06:43:24.221Z,9.457482
2023-01-19T06:44:24.181Z,9.457304
2023-01-19T06:45:24.170Z,9.457269
2023-01-19T06:46:24.167Z,9.457161
2023-01-19T06:47:24.149Z,9.457384
2023-01-19T06:48:24.166Z,9.457326
2023-01-19T06:49:24.132Z,9.457309
2023-01-19T06:50:24.122Z,9.457355
2023-01-19T06:51:24.115Z,9.457303
2023-01-19T06:52:24.105Z,9.457330
2023-01-19T06:53:24.104Z,9.457575
2023-01-19T06:54:24.083Z,9.457321
2023-01-19T06:55:24.420Z,9.457289
2023-01-19T06:56:24.063Z,9.457273
2023-01-19T06:57:24.048Z,9.457194
2023-01-19T06:58:24.063Z,9.457293
2023-01-19T06:59:24.033Z,9.457206
2023-01-19T07:00:24.022Z,9.457211
2023-01-19T07:01:25.086Z,9.457283
2023-01-19T07:02:26.696Z,9.457250
2023-01-19T07:03:24.063Z,9.457194
2023-01-19T07:04:23.997Z,9.457175
2023-01-19T07:05:23.981Z,9.457291
2023-01-19T07:06:23.967Z,9.457248
2023-01-19T07:07:24.024Z,9.457234
2023-01-19T07:08:23.965Z,9.457241
2023-01-19T07:09:23.921Z,9.457159
2023-01-19T07:10:23.920Z,9.457317
2023-01-19T07:11:30.803Z,9.457365
2023-01-19T07:12:24.904Z,9.457250
2023-01-19T07:13:23.915Z,9.457274
2023-01-19T07:14:23.883Z,9.457180
2023-01-19T07:15:23.876Z,9.457191
2023-01-19T07:16:23.920Z,9.457113
2023-01-19T07:17:23.856Z,9.457216
2023-01-19T07:18:23.867Z,9.457159
2023-01-19T07:19:23.834Z,9.456992
2023-01-19T07:20:23.822Z,9.457499
2023-01-19T07:21:23.813Z,9.457486
2023-01-19T07:22:23.806Z,9.457571
2023-01-19T07:23:23.811Z,9.457662
2023-01-19T07:24:23.792Z,9.457593
2023-01-19T07:25:23.771Z,9.457415
2023-01-19T07:26:23.764Z,9.457389
2023-01-19T07:27:23.758Z,9.457347
2023-01-19T07:28:23.761Z,9.457422
2023-01-19T07:29:23.739Z,9.457478
2023-01-19T07:30:23.718Z,9.457340
2023-01-19T07:31:23.868Z,9.457297
2023-01-19T07:32:23.709Z,9.457293
2023-01-19T07:33:23.707Z,9.457293
2023-01-19T07:34:23.683Z,9.457504
2023-01-19T07:35:23.676Z,9.457396
2023-01-19T07:36:23.674Z,9.457300
2023-01-19T07:37:23.700Z,9.457385
2023-01-19T07:38:23.670Z,9.457436
2023-01-19T07:39:23.647Z,9.457250
2023-01-19T07:40:24.100Z,9.457283
2023-01-19T07:41:24.612Z,9.457342
2023-01-19T07:42:23.612Z,9.457311
2023-01-19T07:43:23.616Z,9.457306
2023-01-19T07:44:23.587Z,9.457148
2023-01-19T07:45:23.579Z,9.457245
2023-01-19T07:46:23.691Z,9.457370
2023-01-19T07:47:23.559Z,9.457263
2023-01-19T07:48:23.573Z,9.457242
2023-01-19T07:49:23.525Z,9.457281
2023-01-19T07:50:23.534Z,9.457217
2023-01-19T07:51:23.522Z,9.457337
2023-01-19T07:52:23.510Z,9.457331
2023-01-19T07:53:23.509Z,9.457334
2023-01-19T07:54:23.488Z,9.457228
2023-01-19T07:55:23.486Z,9.457331
2023-01-19T07:56:23.467Z,9.457235
2023-01-19T07:57:23.451Z,9.457211
2023-01-19T07:58:23.476Z,9.457117
2023-01-19T07:59:23.463Z,9.457169
2023-01-19T08:00:23.435Z,9.457160
2023-01-19T08:01:23.490Z,9.457147
2023-01-19T08:02:23.464Z,9.457133
2023-01-19T08:03:23.421Z,9.457196
2023-01-19T08:04:23.423Z,9.457324
2023-01-19T08:05:23.381Z,9.457358
2023-01-19T08:06:23.378Z,9.457554
2023-01-19T08:07:23.369Z,9.457417
2023-01-19T08:08:23.382Z,9.457273
2023-01-19T08:09:23.349Z,9.457067
2023-01-19T08:10:23.339Z,9.457211
2023-01-19T08:11:23.337Z,9.457361
2023-01-19T08:12:23.329Z,9.457273
2023-01-19T08:13:23.324Z,9.457157
2023-01-19T08:14:23.295Z,9.457276
2023-01-19T08:15:23.323Z,9.457257
2023-01-19T08:16:23.264Z,9.457398
2023-01-19T08:17:23.271Z,9.457432
2023-01-19T08:18:23.337Z,9.457340
2023-01-19T08:19:23.250Z,9.457387
2023-01-19T08:20:23.233Z,9.457426
2023-01-19T08:21:23.238Z,9.457427
2023-01-19T08:22:23.227Z,9.457222
2023-01-19T08:23:23.234Z,9.457238
2023-01-19T08:24:23.253Z,9.457244
2023-01-19T08:25:23.201Z,9.457346
2023-01-19T08:26:23.184Z,9.457368
2023-01-19T08:27:23.167Z,9.457521
2023-01-19T08:28:23.182Z,9.457334
2023-01-19T08:29:23.159Z,9.457217
2023-01-19T08:30:23.273Z,9.457233
2023-01-19T08:31:24.845Z,9.457251
2023-01-19T08:32:24.181Z,9.457427
2023-01-19T08:33:23.230Z,9.457219
2023-01-19T08:34:23.116Z,9.457288
2023-01-19T08:35:23.099Z,9.457278
2023-01-19T08:36:23.096Z,9.457280
2023-01-19T08:37:23.079Z,9.457264
2023-01-19T08:38:23.108Z,9.457230
2023-01-19T08:39:23.063Z,9.457232
2023-01-19T08:40:23.093Z,9.457321
2023-01-19T08:41:24.046Z,9.457367
2023-01-19T08:42:23.036Z,9.457250
2023-01-19T08:43:23.051Z,9.457089
2023-01-19T08:44:23.023Z,9.457254
2023-01-19T08:45:23.004Z,9.457261
2023-01-19T08:46:23.130Z,9.457263
2023-01-19T08:47:23.018Z,9.457271
2023-01-19T08:48:23.003Z,9.457240
2023-01-19T08:49:22.984Z,9.457129
2023-01-19T08:50:22.959Z,9.457355
2023-01-19T08:51:22.955Z,9.457286
2023-01-19T08:52:22.948Z,9.457176
2023-01-19T08:53:22.968Z,9.457150
2023-01-19T08:54:22.925Z,9.457155
2023-01-19T08:55:22.933Z,9.457277
2023-01-19T08:56:22.922Z,9.457327
2023-01-19T08:57:22.889Z,9.457198
2023-01-19T08:58:22.917Z,9.457385
2023-01-19T08:59:22.882Z,9.457291
2023-01-19T09:00:22.927Z,9.457230
2023-01-19T09:01:22.980Z,9.457277
2023-01-19T09:02:23.034Z,9.457219
2023-01-19T09:03:23.025Z,9.457190
2023-01-19T09:04:22.836Z,9.457219
2023-01-19T09:05:22.821Z,9.457042
2023-01-19T09:06:22.873Z,9.457044
2023-01-19T09:07:22.811Z,9.457131
2023-01-19T09:08:22.815Z,9.457238
2023-01-19T09:09:22.782Z,9.457348
2023-01-19T09:10:22.780Z,9.457201
2023-01-19T09:11:22.772Z,9.457273
2023-01-19T09:12:22.760Z,9.457293
2023-01-19T09:13:22.756Z,9.457304
2023-01-19T09:14:22.756Z,9.457319
2023-01-19T09:15:22.732Z,9.457221
2023-01-19T09:16:22.782Z,9.457250
2023-01-19T09:17:22.712Z,9.457355
2023-01-19T09:18:22.733Z,9.457211
2023-01-19T09:19:22.702Z,9.457312
2023-01-19T09:20:22.692Z,9.457268
2023-01-19T09:21:22.699Z,9.457273
2023-01-19T09:22:22.727Z,9.457162
2023-01-19T09:23:23.696Z,9.457293
2023-01-19T09:24:22.654Z,9.457323
2023-01-19T09:25:22.638Z,9.457203
2023-01-19T09:26:22.641Z,9.457089
2023-01-19T09:27:22.639Z,9.457134
2023-01-19T09:28:22.669Z,9.457418
2023-01-19T09:29:22.608Z,9.457538
2023-01-19T09:30:22.599Z,9.457317
2023-01-19T09:31:22.685Z,9.457236
2023-01-19T09:32:22.602Z,9.457197
2023-01-19T09:33:22.603Z,9.457309
2023-01-19T09:34:22.557Z,9.457339
2023-01-19T09:35:22.556Z,9.457383
2023-01-19T09:36:22.560Z,9.457491
2023-01-19T09:37:22.539Z,9.457178
2023-01-19T09:38:22.564Z,9.457026
2023-01-19T09:39:22.528Z,9.457018
2023-01-19T09:40:22.526Z,9.457085
2023-01-19T09:41:22.557Z,9.457021
2023-01-19T09:42:23.482Z,9.457216
2023-01-19T09:43:22.530Z,9.457351
2023-01-19T09:44:22.483Z,9.457251
2023-01-19T09:45:22.464Z,9.457097
2023-01-19T09:46:22.485Z,9.457226
2023-01-19T09:47:22.461Z,9.457216
2023-01-19T09:48:22.464Z,9.457108
2023-01-19T09:49:22.440Z,9.457332
2023-01-19T09:50:22.419Z,9.457204
2023-01-19T09:51:23.418Z,9.457406
2023-01-19T09:52:22.453Z,9.457500
2023-01-19T09:53:22.551Z,9.457382
2023-01-19T09:54:22.491Z,9.457294
2023-01-19T09:55:22.521Z,9.457347
2023-01-19T09:56:22.374Z,9.457506
2023-01-19T09:57:22.375Z,9.457370
2023-01-19T09:58:22.387Z,9.457475
2023-01-19T09:59:22.351Z,9.457243
2023-01-19T10:00:22.345Z,9.457291
2023-01-19T10:01:22.420Z,9.457196
2023-01-19T10:02:22.334Z,9.457335
2023-01-19T10:03:22.377Z,9.457330
2023-01-19T10:04:22.324Z,9.457324
2023-01-19T10:05:22.300Z,9.457226
2023-01-19T10:06:22.282Z,9.457190
2023-01-19T10:07:22.284Z,9.457307
2023-01-19T10:08:22.286Z,9.457214
2023-01-19T10:09:22.290Z,9.457181
2023-01-19T10:10:22.275Z,9.457356
2023-01-19T10:11:22.235Z,9.457351
2023-01-19T10:12:23.240Z,9.457368
2023-01-19T10:13:22.231Z,9.457426
2023-01-19T10:14:22.238Z,9.457386
2023-01-19T10:15:22.218Z,9.457320
2023-01-19T10:16:22.237Z,9.457299
2023-01-19T10:17:22.188Z,9.457332
2023-01-19T10:18:22.180Z,9.457307
2023-01-19T10:19:23.211Z,9.457286
2023-01-19T10:20:22.181Z,9.457173
2023-01-19T10:21:22.182Z,9.457364
2023-01-19T10:22:22.201Z,9.457405
2023-01-19T10:23:22.159Z,9.457391
2023-01-19T10:24:22.166Z,9.457335
2023-01-19T10:25:22.204Z,9.457286
2023-01-19T10:26:22.152Z,9.457213
2023-01-19T10:27:22.117Z,9.457299
2023-01-19T10:28:22.138Z,9.457253
2023-01-19T10:29:22.119Z,9.457312
2023-01-19T10:30:22.114Z,9.457281
2023-01-19T10:31:22.159Z,9.457200
2023-01-19T10:32:22.089Z,9.457162
2023-01-19T10:33:22.081Z,9.457159
2023-01-19T10:34:23.661Z,9.457178
2023-01-19T10:35:23.063Z,9.457295
2023-01-19T10:36:22.034Z,9.457247
2023-01-19T10:37:22.026Z,9.457232
2023-01-19T10:38:22.170Z,9.457273
2023-01-19T10:39:22.026Z,9.457325
2023-01-19T10:40:21.994Z,9.457199
2023-01-19T10:41:21.993Z,9.457365
2023-01-19T10:42:21.981Z,9.457347
2023-01-19T10:43:21.975Z,9.457293
2023-01-19T10:44:21.984Z,9.457233
2023-01-19T10:45:21.940Z,9.457277
2023-01-19T10:46:22.039Z,9.457393
2023-01-19T10:47:21.958Z,9.457335
2023-01-19T10:48:21.943Z,9.457287
2023-01-19T10:49:21.930Z,9.457259
2023-01-19T10:50:21.927Z,9.457217
2023-01-19T10:51:21.917Z,9.457256
2023-01-19T10:52:21.934Z,9.457218
2023-01-19T10:53:21.874Z,9.457275
2023-01-19T10:54:21.896Z,9.457232
2023-01-19T10:55:21.859Z,9.457180
2023-01-19T10:56:21.886Z,9.457194
2023-01-19T10:57:21.847Z,9.457273
2023-01-19T10:58:21.849Z,9.457236
2023-01-19T10:59:21.843Z,9.457139
2023-01-19T11:00:21.858Z,9.457142
2023-01-19T11:01:21.975Z,9.457265
2023-01-19T11:02:22.142Z,9.457281
2023-01-19T11:03:21.881Z,9.457184
2023-01-19T11:04:21.806Z,9.457243
2023-01-19T11:05:21.779Z,9.457295
2023-01-19T11:06:21.755Z,9.457238
2023-01-19T11:07:21.766Z,9.457304
2023-01-19T11:08:21.743Z,9.457392
2023-01-19T11:09:21.761Z,9.457184
2023-01-19T11:10:22.518Z,9.457363
2023-01-19T11:11:21.716Z,9.457353
2023-01-19T11:12:21.733Z,9.457294
2023-01-19T11:13:21.699Z,9.457379
2023-01-19T11:14:21.710Z,9.457279
2023-01-19T11:15:21.698Z,9.457356
2023-01-19T11:16:21.740Z,9.457393
2023-01-19T11:17:21.663Z,9.457285
2023-01-19T11:18:21.657Z,9.457173
2023-01-19T11:19:21.666Z,9.457307
2023-01-19T11:20:21.642Z,9.457227
2023-01-19T11:21:21.669Z,9.457181
2023-01-19T11:22:21.644Z,9.457281
2023-01-19T11:23:21.624Z,9.457303
2023-01-19T11:24:21.635Z,9.457238
2023-01-19T11:25:21.609Z,9.457163
2023-01-19T11:26:21.599Z,9.457279
2023-01-19T11:27:21.595Z,9.457310
2023-01-19T11:28:21.569Z,9.457294
2023-01-19T11:29:21.587Z,9.457254
2023-01-19T11:30:21.565Z,9.457321
2023-01-19T11:31:21.712Z,9.457278
2023-01-19T11:32:21.532Z,9.457210
2023-01-19T11:33:21.533Z,9.457333
2023-01-19T11:34:21.546Z,9.457207
2023-01-19T11:35:21.520Z,9.457219
2023-01-19T11:36:21.513Z,9.457226
2023-01-19T11:37:21.502Z,9.457248
2023-01-19T11:38:21.533Z,9.457339
2023-01-19T11:39:21.505Z,9.457196
2023-01-19T11:40:21.470Z,9.457160
2023-01-19T11:41:21.461Z,9.457150
2023-01-19T11:42:21.455Z,9.457179
2023-01-19T11:43:21.447Z,9.457375
2023-01-19T11:44:21.460Z,9.457346